createdAt,value
2022-08-30T00:02:35.223Z,13.80
2022-08-30T00:07:37.906Z,13.70
2022-08-30T00:12:40.511Z,13.70
2022-08-30T00:17:43.690Z,13.70
2022-08-30T00:22:46.424Z,13.80
2022-08-30T00:27:49.915Z,13.90
2022-08-30T00:32:52.408Z,14.20
2022-08-30T00:37:55.057Z,14.50
2022-08-30T00:42:59.918Z,14.90
2022-08-30T00:48:06.450Z,15.20
2022-08-30T00:53:14.512Z,15.40
2022-08-30T00:58:21.791Z,15.50
2022-08-30T01:03:24.546Z,15.60
2022-08-30T01:08:27.388Z,15.80
2022-08-30T01:13:30.759Z,15.80
2022-08-30T01:18:33.634Z,15.80
2022-08-30T01:23:40.381Z,15.80
2022-08-30T01:28:48.550Z,15.80
2022-08-30T01:33:51.224Z,15.80
2022-08-30T01:38:58.035Z,15.70
2022-08-30T01:44:06.511Z,15.80
2022-08-30T01:49:12.984Z,15.80
2022-08-30T01:54:15.512Z,15.90
2022-08-30T01:59:18.031Z,15.90
2022-08-30T02:04:20.503Z,16.00
2022-08-30T02:09:23.058Z,15.90
2022-08-30T02:14:25.777Z,15.60
2022-08-30T02:19:28.894Z,15.70
2022-08-30T02:24:31.853Z,15.90
2022-08-30T02:29:34.461Z,16.00
2022-08-30T02:34:37.226Z,16.00
2022-08-30T02:39:40.195Z,16.10
2022-08-30T02:44:42.921Z,16.10
2022-08-30T02:49:45.411Z,16.10
2022-08-30T02:54:47.867Z,16.20
2022-08-30T02:59:50.931Z,16.10
2022-08-30T03:04:53.594Z,16.10
2022-08-30T03:09:56.179Z,16.10
2022-08-30T03:14:59.110Z,16.10
2022-08-30T03:20:02.271Z,16.10
2022-08-30T03:25:05.908Z,16.10
2022-08-30T03:30:09.742Z,16.10
2022-08-30T03:35:14.008Z,16.10
2022-08-30T03:40:18.851Z,16.10
2022-08-30T03:45:21.559Z,16.00
2022-08-30T03:50:24.255Z,16.10
2022-08-30T03:55:28.351Z,16.20
2022-08-30T04:00:31.103Z,16.10
2022-08-30T04:05:33.725Z,16.10
2022-08-30T04:10:36.353Z,16.00
2022-08-30T04:15:38.785Z,16.10
2022-08-30T04:20:41.329Z,16.10
2022-08-30T04:25:44.218Z,16.10
2022-08-30T04:30:47.223Z,16.20
2022-08-30T04:55:58.422Z,16.30
2022-08-30T05:01:00.953Z,17.10
2022-08-30T05:06:05.426Z,17.00
2022-08-30T05:11:09.451Z,16.90
2022-08-30T05:16:17.826Z,16.80
2022-08-30T05:21:26.695Z,16.80
2022-08-30T05:26:34.536Z,16.70
2022-08-30T05:31:37.509Z,16.80
2022-08-30T05:36:40.791Z,16.80
2022-08-30T05:41:43.351Z,16.80
2022-08-30T05:46:47.966Z,17.00
2022-08-30T05:51:50.471Z,17.40
2022-08-30T05:56:53.008Z,17.50
2022-08-30T06:01:57.871Z,17.30
2022-08-30T06:07:00.535Z,17.30
2022-08-30T06:12:03.271Z,17.40
2022-08-30T06:17:06.853Z,17.50
2022-08-30T06:22:09.447Z,17.40
2022-08-30T06:27:12.137Z,17.60
2022-08-30T06:32:14.787Z,17.60
2022-08-30T06:37:24.588Z,17.60
2022-08-30T06:42:33.638Z,17.80
2022-08-30T06:47:36.173Z,17.90
2022-08-30T06:52:40.277Z,18.00
2022-08-30T06:57:43.148Z,17.90
2022-08-30T07:02:45.669Z,17.80
2022-08-30T07:07:48.448Z,18.00
2022-08-30T07:12:50.897Z,18.10
2022-08-30T07:18:12.031Z,17.40
2022-08-30T07:23:14.673Z,18.60
2022-08-30T07:28:17.793Z,18.80
2022-08-30T07:33:20.334Z,19.10
2022-08-30T07:38:23.242Z,19.70
2022-08-30T07:43:25.736Z,20.40
2022-08-30T07:48:28.248Z,20.60
2022-08-30T07:53:31.445Z,20.90
2022-08-30T07:58:34.585Z,20.60
2022-08-30T08:03:39.966Z,20.60
2022-08-30T08:08:43.106Z,20.70
2022-08-30T08:13:53.252Z,20.50
2022-08-30T08:18:57.500Z,20.40
2022-08-30T08:24:00.138Z,20.00
2022-08-30T08:29:03.429Z,20.40
2022-08-30T08:34:06.601Z,20.90
2022-08-30T08:39:09.857Z,21.00
2022-08-30T08:44:32.424Z,20.50
2022-08-30T08:49:39.496Z,20.50
2022-08-30T08:54:59.250Z,20.90
2022-08-30T09:00:04.433Z,20.80
2022-08-30T09:05:09.011Z,20.30
2022-08-30T09:10:11.576Z,20.60
2022-08-30T09:15:21.720Z,20.70
2022-08-30T09:20:25.874Z,21.20
2022-08-30T09:25:36.716Z,21.10
2022-08-30T09:31:10.025Z,20.80
2022-08-30T09:36:22.847Z,21.30
2022-08-30T09:41:38.559Z,21.50
2022-08-30T09:47:01.302Z,21.50
2022-08-30T09:52:22.646Z,21.00
2022-08-30T09:57:44.978Z,20.90
2022-08-30T10:03:02.731Z,20.70
2022-08-30T10:08:16.871Z,21.30
2022-08-30T10:13:19.653Z,21.50
2022-08-30T10:18:28.400Z,21.90
2022-08-30T10:23:46.085Z,21.80
2022-08-30T10:28:54.963Z,21.70
2022-08-30T10:34:05.503Z,21.90
2022-08-30T10:39:14.835Z,21.30
2022-08-30T10:44:31.945Z,21.10
2022-08-30T10:49:49.559Z,21.00
2022-08-30T10:55:00.648Z,21.00
2022-08-30T11:00:31.833Z,20.60
2022-08-30T11:06:26.348Z,20.60
2022-08-30T11:11:52.750Z,20.40
2022-08-30T11:16:59.485Z,20.30
2022-08-30T11:22:26.580Z,20.50
2022-08-30T11:27:56.504Z,20.30
2022-08-30T11:33:25.436Z,20.30
2022-08-30T11:38:28.461Z,20.50
2022-08-30T11:43:42.852Z,20.90
2022-08-30T11:48:55.577Z,20.60
2022-08-30T11:54:12.863Z,20.80
2022-08-30T11:59:24.347Z,20.70
2022-08-30T12:04:28.828Z,20.60
2022-08-30T12:09:33.128Z,20.70
2022-08-30T12:14:44.823Z,20.70
2022-08-30T12:19:50.563Z,20.70
2022-08-30T12:24:54.588Z,21.00
2022-08-30T12:30:08.439Z,21.10
2022-08-30T12:35:28.441Z,20.80
2022-08-30T12:40:35.200Z,21.00
2022-08-30T12:45:44.188Z,21.30
2022-08-30T12:50:57.955Z,21.40
2022-08-30T12:56:03.866Z,21.50
2022-08-30T13:01:24.577Z,21.50
2022-08-30T13:06:58.643Z,21.30
2022-08-30T13:12:03.607Z,21.10
2022-08-30T13:17:20.294Z,21.20
2022-08-30T13:22:37.358Z,21.40
2022-08-30T13:27:40.247Z,21.20
2022-08-30T13:32:43.724Z,21.30
2022-08-30T13:37:50.527Z,21.40
2022-08-30T13:42:54.038Z,21.40
2022-08-30T13:47:56.755Z,21.50
2022-08-30T13:52:59.145Z,21.40
2022-08-30T13:58:01.970Z,21.30
2022-08-30T14:03:06.561Z,21.40
2022-08-30T14:13:38.066Z,21.20
2022-08-30T14:18:40.896Z,21.10
2022-08-30T14:23:43.480Z,21.20
2022-08-30T14:28:46.339Z,20.80
2022-08-30T14:33:54.322Z,20.80
2022-08-30T14:38:56.866Z,20.60
2022-08-30T14:43:59.925Z,20.60
2022-08-30T14:49:02.683Z,20.60
2022-08-30T14:54:05.456Z,20.80
2022-08-30T14:59:08.670Z,21.40
2022-08-30T15:04:12.394Z,21.00
2022-08-30T15:09:23.120Z,20.70
2022-08-30T15:14:26.542Z,20.70
2022-08-30T15:19:31.776Z,20.90
2022-08-30T15:24:34.440Z,21.10
2022-08-30T15:29:37.260Z,21.00
2022-08-30T15:34:40.115Z,20.80
2022-08-30T15:39:42.943Z,20.40
2022-08-30T15:44:46.595Z,20.30
2022-08-30T15:49:57.538Z,20.20
2022-08-30T15:55:00.708Z,20.20
2022-08-30T16:00:06.995Z,20.10
2022-08-30T16:05:11.147Z,20.00
2022-08-30T16:10:15.026Z,19.80
2022-08-30T16:15:17.609Z,19.50
2022-08-30T16:20:23.308Z,19.30
2022-08-30T16:25:25.972Z,19.30
2022-08-30T16:30:43.815Z,19.10
2022-08-30T16:35:55.687Z,19.00
2022-08-30T16:40:58.959Z,18.90
2022-08-30T16:46:07.774Z,18.90
2022-08-30T16:51:14.745Z,18.70
2022-08-30T16:56:24.387Z,18.70
2022-08-30T17:01:29.648Z,18.60
2022-08-30T17:06:32.349Z,18.40
2022-08-30T17:11:36.285Z,18.30
2022-08-30T17:16:39.442Z,18.20
2022-08-30T17:21:45.329Z,18.00
2022-08-30T17:26:47.999Z,17.90
2022-08-30T17:31:50.854Z,17.80
2022-08-30T17:36:55.581Z,17.70
2022-08-30T17:41:59.156Z,17.60
2022-08-30T17:47:15.407Z,17.50
2022-08-30T17:52:17.905Z,17.30
2022-08-30T17:57:20.781Z,17.10
2022-08-30T18:02:29.664Z,17.00
2022-08-30T18:07:33.213Z,17.00
2022-08-30T18:12:35.697Z,16.90
2022-08-30T18:17:38.605Z,16.80
2022-08-30T18:22:41.934Z,16.70
2022-08-30T18:27:48.081Z,16.70
2022-08-30T18:33:00.918Z,16.80
2022-08-30T18:38:03.714Z,16.80
2022-08-30T18:43:09.922Z,16.70
2022-08-30T18:48:14.458Z,16.70
2022-08-30T18:53:29.187Z,16.50
2022-08-30T18:58:31.956Z,16.50
2022-08-30T19:03:35.570Z,16.40
2022-08-30T19:08:41.458Z,16.40
2022-08-30T19:13:48.558Z,16.30
2022-08-30T19:18:54.408Z,16.40
2022-08-30T19:23:57.177Z,16.50
2022-08-30T19:29:00.379Z,16.60
2022-08-30T19:34:04.299Z,16.80
2022-08-30T19:39:07.762Z,17.10
2022-08-30T19:44:10.413Z,17.20
2022-08-30T19:49:14.644Z,17.10
2022-08-30T19:54:17.395Z,17.10
2022-08-30T19:59:20.063Z,17.10
2022-08-30T20:04:22.859Z,16.90
2022-08-30T20:09:25.647Z,16.80
2022-08-30T20:14:28.191Z,16.90
2022-08-30T20:19:31.757Z,16.90
2022-08-30T20:29:40.277Z,16.80
2022-08-30T20:34:43.479Z,16.70
2022-08-30T20:39:46.737Z,16.70
2022-08-30T20:44:49.178Z,16.70
2022-08-30T20:49:53.004Z,16.60
2022-08-30T20:54:55.500Z,16.60
2022-08-30T21:00:01.216Z,16.50
2022-08-30T21:05:05.458Z,16.40
2022-08-30T21:10:08.549Z,16.50
2022-08-30T21:15:33.967Z,16.50
2022-08-30T21:20:34.470Z,16.30
2022-08-30T21:25:43.514Z,16.30
2022-08-30T21:30:46.324Z,16.20
2022-08-30T21:36:07.543Z,16.00
2022-08-30T21:41:10.336Z,15.90
2022-08-30T21:46:13.427Z,15.90
2022-08-30T21:51:16.122Z,15.70
2022-08-30T21:56:21.972Z,15.60
2022-08-30T22:01:27.615Z,15.60
2022-08-30T22:06:32.703Z,15.50
2022-08-30T22:11:36.281Z,15.50
2022-08-30T22:16:40.253Z,15.40
2022-08-30T22:21:44.790Z,15.20
2022-08-30T22:26:47.560Z,15.00
2022-08-30T22:31:50.175Z,14.90
2022-08-30T22:36:52.976Z,14.70
2022-08-30T22:41:55.564Z,14.60
2022-08-30T22:46:57.997Z,14.50
2022-08-30T22:52:00.606Z,14.40
2022-08-30T22:57:04.508Z,14.40
2022-08-30T23:02:07.595Z,14.30
2022-08-30T23:07:11.076Z,14.40
2022-08-30T23:12:13.683Z,14.30
2022-08-30T23:17:16.686Z,14.40
2022-08-30T23:22:19.170Z,14.40
2022-08-30T23:27:42.253Z,14.30
2022-08-30T23:33:03.162Z,14.30
2022-08-30T23:38:25.664Z,14.40
2022-08-30T23:43:46.830Z,14.30
2022-08-30T23:49:09.027Z,14.20
2022-08-30T23:54:29.993Z,14.10
2022-08-30T23:59:50.975Z,14.10
